sensor_id;sensor_type;location;lat;lon;timestamp;pressure;altitude;pressure_sealevel;temperature;humidity
48352;BME280;34163;49.314;6.752;2023-08-17T07:58:31;99767.16;;;10.60;100.00
48352;BME280;34163;49.314;6.752;2023-08-17T08:00:56;99765.16;;;10.86;100.00
48352;BME280;34163;49.314;6.752;2023-08-17T08:03:21;99768.25;;;10.96;100.00
48352;BME280;34163;49.314;6.752;2023-08-17T08:05:47;99756.13;;;11.11;100.00
48352;BME280;34163;49.314;6.752;2023-08-17T08:08:12;99763.88;;;10.55;100.00
48352;BME280;34163;49.314;6.752;2023-08-17T08:10:37;99761.28;;;10.74;100.00
48352;BME280;34163;49.314;6.752;2023-08-17T08:13:02;99763.97;;;10.93;100.00
48352;BME280;34163;49.314;6.752;2023-08-17T08:15:29;99763.25;;;11.08;100.00
48352;BME280;34163;49.314;6.752;2023-08-17T08:17:54;99764.44;;;11.22;100.00
48352;BME280;34163;49.314;6.752;2023-08-17T08:20:20;99769.94;;;10.78;100.00
48352;BME280;34163;49.314;6.752;2023-08-17T08:22:45;99765.69;;;10.94;100.00
48352;BME280;34163;49.314;6.752;2023-08-17T08:25:10;99772.44;;;11.01;100.00
48352;BME280;34163;49.314;6.752;2023-08-17T08:27:36;99773.81;;;11.10;100.00
48352;BME280;34163;49.314;6.752;2023-08-17T08:30:01;99770.81;;;11.18;100.00
48352;BME280;34163;49.314;6.752;2023-08-17T08:32:26;99765.81;;;10.70;100.00
48352;BME280;34163;49.314;6.752;2023-08-17T08:34:51;99764.63;;;10.98;100.00
48352;BME280;34163;49.314;6.752;2023-08-17T08:37:17;99765.91;;;11.08;100.00
48352;BME280;34163;49.314;6.752;2023-08-17T08:39:49;99763.13;;;11.12;100.00
48352;BME280;34163;49.314;6.752;2023-08-17T08:42:15;99762.41;;;11.08;100.00
48352;BME280;34163;49.314;6.752;2023-08-17T08:44:41;99761.22;;;10.76;100.00
48352;BME280;34163;49.314;6.752;2023-08-17T08:47:06;99753.81;;;11.03;100.00
48352;BME280;34163;49.314;6.752;2023-08-17T08:49:31;99763.19;;;11.10;100.00
48352;BME280;34163;49.314;6.752;2023-08-17T08:51:59;99761.28;;;11.14;100.00
48352;BME280;34163;49.314;6.752;2023-08-17T08:54:25;99763.22;;;10.89;100.00
48352;BME280;34163;49.314;6.752;2023-08-17T08:57:01;99762.25;;;10.92;100.00
48352;BME280;34163;49.314;6.752;2023-08-17T08:59:28;99757.69;;;11.15;100.00
48352;BME280;34163;49.314;6.752;2023-08-17T09:01:55;99764.59;;;11.19;100.00
48352;BME280;34163;49.314;6.752;2023-08-17T09:04:21;99760.97;;;11.20;100.00
48352;BME280;34163;49.314;6.752;2023-08-17T09:06:47;99758.22;;;11.02;100.00
48352;BME280;34163;49.314;6.752;2023-08-17T09:09:12;99749.81;;;11.13;100.00
48352;BME280;34163;49.314;6.752;2023-08-17T09:11:39;99744.22;;;11.19;100.00
48352;BME280;34163;49.314;6.752;2023-08-17T09:14:05;99744.50;;;11.32;100.00
48352;BME280;34163;49.314;6.752;2023-08-17T09:16:31;99745.28;;;11.34;100.00
48352;BME280;34163;49.314;6.752;2023-08-17T09:18:56;99746.47;;;10.89;100.00
48352;BME280;34163;49.314;6.752;2023-08-17T09:21:22;99755.09;;;11.13;100.00
48352;BME280;34163;49.314;6.752;2023-08-17T09:23:51;99752.59;;;11.29;100.00
48352;BME280;34163;49.314;6.752;2023-08-17T09:26:17;99753.84;;;11.41;100.00
48352;BME280;34163;49.314;6.752;2023-08-17T09:28:44;99764.25;;;11.45;100.00
48352;BME280;34163;49.314;6.752;2023-08-17T09:31:09;99761.13;;;10.98;100.00
48352;BME280;34163;49.314;6.752;2023-08-17T09:33:34;99775.63;;;11.29;100.00
48352;BME280;34163;49.314;6.752;2023-08-17T09:36:00;99788.69;;;11.33;100.00
48352;BME280;34163;49.314;6.752;2023-08-17T09:38:26;99795.13;;;11.47;100.00
48352;BME280;34163;49.314;6.752;2023-08-17T09:40:51;99788.97;;;11.27;100.00
48352;BME280;34163;49.314;6.752;2023-08-17T09:43:17;99779.50;;;11.01;100.00
48352;BME280;34163;49.314;6.752;2023-08-17T09:45:43;99785.47;;;11.26;100.00
48352;BME280;34163;49.314;6.752;2023-08-17T09:48:14;99794.56;;;11.40;100.00
48352;BME280;34163;49.314;6.752;2023-08-17T09:50:39;99804.91;;;11.46;100.00
48352;BME280;34163;49.314;6.752;2023-08-17T09:53:05;99800.38;;;11.08;100.00
48352;BME280;34163;49.314;6.752;2023-08-17T09:55:30;99797.97;;;11.23;100.00
48352;BME280;34163;49.314;6.752;2023-08-17T09:57:57;99789.25;;;11.40;100.00
48352;BME280;34163;49.314;6.752;2023-08-17T10:00:22;99786.41;;;11.44;100.00
48352;BME280;34163;49.314;6.752;2023-08-17T10:02:49;99788.25;;;11.42;100.00
48352;BME280;34163;49.314;6.752;2023-08-17T10:05:15;99783.06;;;11.01;100.00
48352;BME280;34163;49.314;6.752;2023-08-17T10:07:43;99787.38;;;11.23;100.00
48352;BME280;34163;49.314;6.752;2023-08-17T10:10:09;99799.72;;;11.43;100.00
48352;BME280;34163;49.314;6.752;2023-08-17T10:12:47;99807.41;;;11.49;100.00
48352;BME280;34163;49.314;6.752;2023-08-17T10:15:15;99809.72;;;11.57;100.00
48352;BME280;34163;49.314;6.752;2023-08-17T10:17:44;99802.38;;;11.03;100.00
48352;BME280;34163;49.314;6.752;2023-08-17T10:20:11;99785.22;;;11.31;100.00
48352;BME280;34163;49.314;6.752;2023-08-17T10:22:47;99774.31;;;11.37;100.00
48352;BME280;34163;49.314;6.752;2023-08-17T10:25:14;99776.84;;;11.40;100.00
48352;BME280;34163;49.314;6.752;2023-08-17T10:27:40;99786.31;;;11.46;100.00
48352;BME280;34163;49.314;6.752;2023-08-17T10:30:07;99780.19;;;11.06;100.00
48352;BME280;34163;49.314;6.752;2023-08-17T10:32:33;99784.38;;;11.31;100.00
48352;BME280;34163;49.314;6.752;2023-08-17T10:34:58;99776.97;;;11.37;100.00
48352;BME280;34163;49.314;6.752;2023-08-17T10:37:24;99766.97;;;11.44;100.00
48352;BME280;34163;49.314;6.752;2023-08-17T10:39:49;99763.22;;;11.48;100.00
48352;BME280;34163;49.314;6.752;2023-08-17T10:42:15;99768.84;;;11.02;100.00
48352;BME280;34163;49.314;6.752;2023-08-17T10:44:54;99758.69;;;11.31;100.00
48352;BME280;34163;49.314;6.752;2023-08-17T10:47:26;99750.16;;;11.43;100.00
48352;BME280;34163;49.314;6.752;2023-08-17T10:52:27;99776.19;;;11.16;100.00
48352;BME280;34163;49.314;6.752;2023-08-17T10:54:53;99776.63;;;11.26;100.00
48352;BME280;34163;49.314;6.752;2023-08-17T10:57:27;99788.63;;;11.54;100.00
48352;BME280;34163;49.314;6.752;2023-08-17T11:02:36;99784.66;;;11.62;100.00
48352;BME280;34163;49.314;6.752;2023-08-17T11:05:02;99750.66;;;11.52;100.00
48352;BME280;34163;49.314;6.752;2023-08-17T11:07:37;99736.91;;;11.43;100.00
48352;BME280;34163;49.314;6.752;2023-08-17T11:10:10;99750.81;;;11.49;100.00
48352;BME280;34163;49.314;6.752;2023-08-17T11:12:35;99761.13;;;11.55;100.00
48352;BME280;34163;49.314;6.752;2023-08-17T11:15:00;99783.81;;;11.62;100.00
48352;BME280;34163;49.314;6.752;2023-08-17T11:17:26;99803.63;;;11.15;100.00
48352;BME280;34163;49.314;6.752;2023-08-17T11:19:52;99814.78;;;11.42;100.00
48352;BME280;34163;49.314;6.752;2023-08-17T11:22:17;99819.66;;;11.52;100.00
48352;BME280;34163;49.314;6.752;2023-08-17T11:24:43;99826.50;;;11.76;100.00
48352;BME280;34163;49.314;6.752;2023-08-17T11:27:08;99817.78;;;11.35;100.00
48352;BME280;34163;49.314;6.752;2023-08-17T11:29:34;99810.75;;;10.73;100.00
48352;BME280;34163;49.314;6.752;2023-08-17T11:31:59;99805.38;;;10.96;100.00
48352;BME280;34163;49.314;6.752;2023-08-17T11:34:24;99799.94;;;10.99;100.00
48352;BME280;34163;49.314;6.752;2023-08-17T11:36:50;99805.97;;;11.02;100.00
48352;BME280;34163;49.314;6.752;2023-08-17T11:39:15;99799.75;;;11.03;100.00
48352;BME280;34163;49.314;6.752;2023-08-17T11:41:40;99801.22;;;10.49;100.00
48352;BME280;34163;49.314;6.752;2023-08-17T11:44:06;99806.84;;;10.82;100.00
48352;BME280;34163;49.314;6.752;2023-08-17T11:46:32;99807.09;;;10.97;100.00
48352;BME280;34163;49.314;6.752;2023-08-17T11:49:00;99804.13;;;11.04;100.00
48352;BME280;34163;49.314;6.752;2023-08-17T11:51:29;99800.97;;;10.96;100.00
48352;BME280;34163;49.314;6.752;2023-08-17T11:53:58;99791.28;;;10.54;100.00
48352;BME280;34163;49.314;6.752;2023-08-17T11:56:28;99791.75;;;10.84;100.00
48352;BME280;34163;49.314;6.752;2023-08-17T11:59:08;99788.16;;;11.06;100.00
48352;BME280;34163;49.314;6.752;2023-08-17T12:01:33;99784.72;;;11.61;100.00
48352;BME280;34163;49.314;6.752;2023-08-17T12:04:06;99764.31;;;11.25;100.00
48352;BME280;34163;49.314;6.752;2023-08-17T12:06:33;99760.25;;;10.56;100.00
48352;BME280;34163;49.314;6.752;2023-08-17T12:08:59;99753.56;;;10.88;100.00
48352;BME280;34163;49.314;6.752;2023-08-17T12:11:24;99738.25;;;10.95;100.00
48352;BME280;34163;49.314;6.752;2023-08-17T12:13:50;99732.59;;;11.03;100.00
48352;BME280;34163;49.314;6.752;2023-08-17T12:16:18;99729.28;;;10.58;100.00
48352;BME280;34163;49.314;6.752;2023-08-17T12:18:45;99724.91;;;10.57;100.00
48352;BME280;34163;49.314;6.752;2023-08-17T12:21:11;99718.38;;;10.85;100.00
48352;BME280;34163;49.314;6.752;2023-08-17T12:23:36;99732.81;;;10.98;100.00
48352;BME280;34163;49.314;6.752;2023-08-17T12:26:01;99733.31;;;11.06;100.00
48352;BME280;34163;49.314;6.752;2023-08-17T12:28:26;99726.50;;;10.61;100.00
48352;BME280;34163;49.314;6.752;2023-08-17T12:31:01;99715.72;;;10.66;100.00
48352;BME280;34163;49.314;6.752;2023-08-17T12:33:27;99714.66;;;10.89;100.00
48352;BME280;34163;49.314;6.752;2023-08-17T12:35:52;99715.38;;;10.93;100.00
48352;BME280;34163;49.314;6.752;2023-08-17T12:38:18;99707.06;;;11.00;100.00
48352;BME280;34163;49.314;6.752;2023-08-17T12:40:43;99693.84;;;10.40;100.00
48352;BME280;34163;49.314;6.752;2023-08-17T12:43:09;99684.44;;;10.74;100.00
48352;BME280;34163;49.314;6.752;2023-08-17T12:45:34;99682.72;;;10.92;100.00
48352;BME280;34163;49.314;6.752;2023-08-17T12:47:59;99671.13;;;11.14;100.00
48352;BME280;34163;49.314;6.752;2023-08-17T12:50:25;99663.38;;;13.35;100.00
48352;BME280;34163;49.314;6.752;2023-08-17T12:52:50;99657.28;;;11.99;100.00
48352;BME280;34163;49.314;6.752;2023-08-17T12:55:15;99647.59;;;11.61;100.00
48352;BME280;34163;49.314;6.752;2023-08-17T12:57:40;99635.16;;;11.44;100.00
48352;BME280;34163;49.314;6.752;2023-08-17T13:00:06;99631.34;;;11.14;100.00
48352;BME280;34163;49.314;6.752;2023-08-17T13:02:31;99625.44;;;10.69;100.00
48352;BME280;34163;49.314;6.752;2023-08-17T13:04:59;99635.28;;;10.86;100.00
48352;BME280;34163;49.314;6.752;2023-08-17T13:07:25;99627.69;;;10.97;100.00
48352;BME280;34163;49.314;6.752;2023-08-17T13:09:50;99620.53;;;10.99;100.00
48352;BME280;34163;49.314;6.752;2023-08-17T13:12:15;99619.41;;;10.46;100.00
48352;BME280;34163;49.314;6.752;2023-08-17T13:14:43;99625.63;;;10.66;100.00
48352;BME280;34163;49.314;6.752;2023-08-17T13:17:08;99633.56;;;10.85;100.00
48352;BME280;34163;49.314;6.752;2023-08-17T13:19:33;99642.25;;;10.88;100.00
48352;BME280;34163;49.314;6.752;2023-08-17T13:21:58;99642.25;;;10.49;100.00
48352;BME280;34163;49.314;6.752;2023-08-17T13:24:24;99638.28;;;10.39;100.00
48352;BME280;34163;49.314;6.752;2023-08-17T13:26:49;99650.31;;;10.66;100.00
48352;BME280;34163;49.314;6.752;2023-08-17T13:29:18;99655.06;;;10.79;100.00
48352;BME280;34163;49.314;6.752;2023-08-17T13:31:43;99658.00;;;10.92;100.00
48352;BME280;34163;49.314;6.752;2023-08-17T13:34:08;99643.88;;;10.32;100.00
48352;BME280;34163;49.314;6.752;2023-08-17T13:36:36;99643.56;;;10.59;100.00
48352;BME280;34163;49.314;6.752;2023-08-17T13:39:02;99646.75;;;10.67;100.00
48352;BME280;34163;49.314;6.752;2023-08-17T13:41:27;99648.81;;;10.80;100.00
48352;BME280;34163;49.314;6.752;2023-08-17T13:43:52;99643.44;;;10.42;100.00
48352;BME280;34163;49.314;6.752;2023-08-17T13:46:18;99641.63;;;10.44;100.00
48352;BME280;34163;49.314;6.752;2023-08-17T13:48:43;99641.59;;;10.64;100.00
48352;BME280;34163;49.314;6.752;2023-08-17T13:51:08;99643.44;;;10.81;100.00
48352;BME280;34163;49.314;6.752;2023-08-17T13:53:33;99634.56;;;10.63;100.00
48352;BME280;34163;49.314;6.752;2023-08-17T13:55:59;99631.13;;;10.61;100.00
48352;BME280;34163;49.314;6.752;2023-08-17T13:58:24;99627.53;;;10.81;100.00
48352;BME280;34163;49.314;6.752;2023-08-17T14:00:49;99636.94;;;10.88;100.00
48352;BME280;34163;49.314;6.752;2023-08-17T14:03:15;99638.16;;;10.81;100.00
48352;BME280;34163;49.314;6.752;2023-08-17T14:05:40;99633.97;;;10.57;100.00
48352;BME280;34163;49.314;6.752;2023-08-17T14:08:05;99627.88;;;11.12;100.00
48352;BME280;34163;49.314;6.752;2023-08-17T14:10:31;99630.81;;;11.24;100.00
48352;BME280;34163;49.314;6.752;2023-08-17T14:12:58;99627.03;;;11.11;100.00
48352;BME280;34163;49.314;6.752;2023-08-17T14:15:23;99618.69;;;10.43;100.00
48352;BME280;34163;49.314;6.752;2023-08-17T14:17:48;99621.50;;;10.59;100.00
48352;BME280;34163;49.314;6.752;2023-08-17T14:20:14;99622.53;;;10.75;100.00
48352;BME280;34163;49.314;6.752;2023-08-17T14:22:42;99614.50;;;10.77;100.00
48352;BME280;34163;49.314;6.752;2023-08-17T14:25:07;99611.56;;;10.64;100.00
48352;BME280;34163;49.314;6.752;2023-08-17T14:27:32;99606.69;;;10.35;100.00
48352;BME280;34163;49.314;6.752;2023-08-17T14:29:58;99603.19;;;10.54;100.00
48352;BME280;34163;49.314;6.752;2023-08-17T14:32:26;99605.34;;;10.84;100.00
48352;BME280;34163;49.314;6.752;2023-08-17T14:34:51;99603.34;;;10.89;100.00
48352;BME280;34163;49.314;6.752;2023-08-17T14:37:17;99595.00;;;10.19;100.00
48352;BME280;34163;49.314;6.752;2023-08-17T14:39:42;99589.84;;;10.56;100.00
48352;BME280;34163;49.314;6.752;2023-08-17T14:42:07;99586.78;;;10.65;100.00
48352;BME280;34163;49.314;6.752;2023-08-17T14:44:32;99587.00;;;10.79;100.00
48352;BME280;34163;49.314;6.752;2023-08-17T14:46:57;99582.06;;;10.32;100.00
48352;BME280;34163;49.314;6.752;2023-08-17T14:49:23;99582.66;;;10.39;100.00
48352;BME280;34163;49.314;6.752;2023-08-17T14:51:51;99576.13;;;10.66;100.00
48352;BME280;34163;49.314;6.752;2023-08-17T14:54:16;99579.97;;;10.78;100.00
48352;BME280;34163;49.314;6.752;2023-08-17T14:56:41;99577.75;;;10.88;100.00
48352;BME280;34163;49.314;6.752;2023-08-17T14:59:07;99572.47;;;10.50;100.00
48352;BME280;34163;49.314;6.752;2023-08-17T15:01:32;99575.09;;;10.69;100.00
48352;BME280;34163;49.314;6.752;2023-08-17T15:03:57;99578.41;;;10.74;100.00
48352;BME280;34163;49.314;6.752;2023-08-17T15:06:23;99574.69;;;10.78;100.00
48352;BME280;34163;49.314;6.752;2023-08-17T15:08:50;99568.25;;;10.25;100.00
48352;BME280;34163;49.314;6.752;2023-08-17T15:11:15;99570.31;;;10.58;100.00
48352;BME280;34163;49.314;6.752;2023-08-17T15:13:40;99563.94;;;10.62;100.00
48352;BME280;34163;49.314;6.752;2023-08-17T15:16:06;99576.53;;;10.76;100.00
48352;BME280;34163;49.314;6.752;2023-08-17T15:18:32;99566.16;;;10.52;100.00
48352;BME280;34163;49.314;6.752;2023-08-17T15:21:00;99566.63;;;10.42;100.00
48352;BME280;34163;49.314;6.752;2023-08-17T15:23:25;99564.81;;;10.63;100.00
48352;BME280;34163;49.314;6.752;2023-08-17T15:25:54;99568.53;;;10.78;100.00
48352;BME280;34163;49.314;6.752;2023-08-17T15:28:19;99558.41;;;10.86;100.00
48352;BME280;34163;49.314;6.752;2023-08-17T15:30:44;99562.28;;;10.41;100.00
48352;BME280;34163;49.314;6.752;2023-08-17T15:33:12;99564.16;;;10.77;100.00
48352;BME280;34163;49.314;6.752;2023-08-17T15:35:37;99566.50;;;10.83;100.00
48352;BME280;34163;49.314;6.752;2023-08-17T15:38:02;99565.00;;;10.96;100.00
48352;BME280;34163;49.314;6.752;2023-08-17T15:40:28;99559.47;;;11.55;100.00
48352;BME280;34163;49.314;6.752;2023-08-17T15:42:53;99563.50;;;10.90;100.00
48352;BME280;34163;49.314;6.752;2023-08-17T15:45:18;99555.75;;;10.86;100.00
48352;BME280;34163;49.314;6.752;2023-08-17T15:47:45;99550.38;;;10.87;100.00
48352;BME280;34163;49.314;6.752;2023-08-17T15:50:13;99552.91;;;10.71;100.00
48352;BME280;34163;49.314;6.752;2023-08-17T15:52:39;99542.22;;;10.35;100.00
48352;BME280;34163;49.314;6.752;2023-08-17T15:55:04;99542.03;;;10.59;100.00
48352;BME280;34163;49.314;6.752;2023-08-17T15:57:30;99540.03;;;10.64;100.00
48352;BME280;34163;49.314;6.752;2023-08-17T15:59:55;99535.13;;;10.73;100.00
48352;BME280;34163;49.314;6.752;2023-08-17T16:02:20;99527.69;;;10.25;100.00
48352;BME280;34163;49.314;6.752;2023-08-17T16:04:45;99535.81;;;10.41;100.00
48352;BME280;34163;49.314;6.752;2023-08-17T16:07:11;99535.88;;;10.58;100.00
48352;BME280;34163;49.314;6.752;2023-08-17T16:09:37;99529.41;;;10.64;100.00
48352;BME280;34163;49.314;6.752;2023-08-17T16:12:02;99531.56;;;10.56;100.00
48352;BME280;34163;49.314;6.752;2023-08-17T16:14:28;99524.81;;;10.29;100.00
48352;BME280;34163;49.314;6.752;2023-08-17T16:16:53;99530.72;;;10.55;100.00
48352;BME280;34163;49.314;6.752;2023-08-17T16:19:19;99527.59;;;10.66;100.00
48352;BME280;34163;49.314;6.752;2023-08-17T16:21:44;99531.78;;;10.70;100.00
48352;BME280;34163;49.314;6.752;2023-08-17T16:24:11;99524.84;;;10.09;100.00
48352;BME280;34163;49.314;6.752;2023-08-17T16:26:36;99530.09;;;10.50;100.00
48352;BME280;34163;49.314;6.752;2023-08-17T16:29:04;99526.84;;;10.62;100.00
48352;BME280;34163;49.314;6.752;2023-08-17T16:31:31;99529.28;;;10.67;100.00
48352;BME280;34163;49.314;6.752;2023-08-17T16:33:57;99532.28;;;10.59;100.00
48352;BME280;34163;49.314;6.752;2023-08-17T16:36:22;99524.41;;;10.39;100.00
48352;BME280;34163;49.314;6.752;2023-08-17T16:38:47;99528.84;;;10.57;100.00
48352;BME280;34163;49.314;6.752;2023-08-17T16:41:13;99538.00;;;10.69;100.00
48352;BME280;34163;49.314;6.752;2023-08-17T16:43:38;99541.81;;;10.82;100.00
48352;BME280;34163;49.314;6.752;2023-08-17T16:46:03;99532.28;;;10.40;100.00
48352;BME280;34163;49.314;6.752;2023-08-17T16:48:31;99527.72;;;10.63;100.00
48352;BME280;34163;49.314;6.752;2023-08-17T16:50:56;99527.84;;;10.79;100.00
48352;BME280;34163;49.314;6.752;2023-08-17T16:53:25;99537.50;;;10.80;100.00
48352;BME280;34163;49.314;6.752;2023-08-17T16:55:53;99526.13;;;10.40;100.00
48352;BME280;34163;49.314;6.752;2023-08-17T16:58:18;99528.00;;;10.57;100.00
48352;BME280;34163;49.314;6.752;2023-08-17T17:00:43;99530.31;;;10.64;100.00
48352;BME280;34163;49.314;6.752;2023-08-17T17:03:09;99526.59;;;10.86;100.00
48352;BME280;34163;49.314;6.752;2023-08-17T17:05:34;99524.88;;;10.85;100.00
48352;BME280;34163;49.314;6.752;2023-08-17T17:07:59;99524.88;;;10.48;100.00
48352;BME280;34163;49.314;6.752;2023-08-17T17:10:25;99528.84;;;10.76;100.00
48352;BME280;34163;49.314;6.752;2023-08-17T17:12:50;99513.56;;;10.81;100.00
48352;BME280;34163;49.314;6.752;2023-08-17T17:15:15;99521.50;;;11.00;100.00
48352;BME280;34163;49.314;6.752;2023-08-17T17:17:40;99520.41;;;10.49;100.00
48352;BME280;34163;49.314;6.752;2023-08-17T17:20:06;99512.88;;;10.78;100.00
48352;BME280;34163;49.314;6.752;2023-08-17T17:22:31;99521.88;;;10.93;100.00
48352;BME280;34163;49.314;6.752;2023-08-17T17:24:57;99521.28;;;11.05;100.00
48352;BME280;34163;49.314;6.752;2023-08-17T17:27:22;99517.75;;;10.87;100.00
48352;BME280;34163;49.314;6.752;2023-08-17T17:29:47;99515.16;;;10.85;100.00
48352;BME280;34163;49.314;6.752;2023-08-17T17:32:13;99525.09;;;10.99;100.00
48352;BME280;34163;49.314;6.752;2023-08-17T17:34:39;99522.78;;;11.11;100.00
48352;BME280;34163;49.314;6.752;2023-08-17T17:37:04;99523.34;;;11.17;100.00
48352;BME280;34163;49.314;6.752;2023-08-17T17:39:32;99523.19;;;10.84;100.00
48352;BME280;34163;49.314;6.752;2023-08-17T17:41:57;99528.53;;;11.01;100.00
48352;BME280;34163;49.314;6.752;2023-08-17T17:44:23;99524.34;;;11.15;100.00
48352;BME280;34163;49.314;6.752;2023-08-17T17:46:48;99536.00;;;11.30;100.00
48352;BME280;34163;49.314;6.752;2023-08-17T17:49:14;99545.22;;;10.84;100.00
48352;BME280;34163;49.314;6.752;2023-08-17T17:51:39;99535.53;;;11.02;100.00
48352;BME280;34163;49.314;6.752;2023-08-17T17:54:04;99545.41;;;11.18;100.00
48352;BME280;34163;49.314;6.752;2023-08-17T17:56:36;99552.75;;;11.30;100.00
48352;BME280;34163;49.314;6.752;2023-08-17T17:59:02;99550.03;;;10.95;100.00
48352;BME280;34163;49.314;6.752;2023-08-17T18:01:28;99545.72;;;10.93;100.00
48352;BME280;34163;49.314;6.752;2023-08-17T18:03:53;99540.53;;;11.08;100.00
48352;BME280;34163;49.314;6.752;2023-08-17T18:06:19;99550.56;;;11.21;100.00
48352;BME280;34163;49.314;6.752;2023-08-17T18:08:45;99546.34;;;11.34;100.00
48352;BME280;34163;49.314;6.752;2023-08-17T18:11:10;99542.94;;;10.77;100.00
48352;BME280;34163;49.314;6.752;2023-08-17T18:13:35;99542.34;;;11.08;100.00
48352;BME280;34163;49.314;6.752;2023-08-17T18:16:01;99541.75;;;11.20;100.00
48352;BME280;34163;49.314;6.752;2023-08-17T18:18:26;99550.03;;;11.32;100.00
48352;BME280;34163;49.314;6.752;2023-08-17T18:20:51;99545.88;;;11.26;100.00
48352;BME280;34163;49.314;6.752;2023-08-17T18:23:16;99544.06;;;11.09;100.00
48352;BME280;34163;49.314;6.752;2023-08-17T18:25:42;99548.69;;;11.23;100.00
48352;BME280;34163;49.314;6.752;2023-08-17T18:28:11;99543.53;;;11.37;100.00
48352;BME280;34163;49.314;6.752;2023-08-17T18:30:36;99543.38;;;11.40;100.00
48352;BME280;34163;49.314;6.752;2023-08-17T18:33:01;99548.00;;;11.00;100.00
48352;BME280;34163;49.314;6.752;2023-08-17T18:35:27;99549.69;;;11.20;100.00
48352;BME280;34163;49.314;6.752;2023-08-17T18:37:52;99549.81;;;11.36;100.00
48352;BME280;34163;49.314;6.752;2023-08-17T18:40:17;99554.66;;;11.45;100.00
48352;BME280;34163;49.314;6.752;2023-08-17T18:42:47;99555.97;;;11.37;100.00
48352;BME280;34163;49.314;6.752;2023-08-17T18:45:13;99561.59;;;11.12;100.00
48352;BME280;34163;49.314;6.752;2023-08-17T18:47:39;99566.03;;;11.30;100.00
48352;BME280;34163;49.314;6.752;2023-08-17T18:50:05;99565.50;;;11.41;100.00
48352;BME280;34163;49.314;6.752;2023-08-17T18:52:30;99567.47;;;13.97;100.00
48352;BME280;34163;49.314;6.752;2023-08-17T18:54:56;99572.44;;;11.78;100.00
48352;BME280;34163;49.314;6.752;2023-08-17T18:57:22;99567.59;;;11.52;100.00
48352;BME280;34163;49.314;6.752;2023-08-17T18:59:47;99563.84;;;11.38;100.00
48352;BME280;34163;49.314;6.752;2023-08-17T19:02:12;99561.50;;;11.32;100.00
48352;BME280;34163;49.314;6.752;2023-08-17T19:04:38;99564.34;;;10.72;100.00
48352;BME280;34163;49.314;6.752;2023-08-17T19:07:03;99565.53;;;10.85;100.00
48352;BME280;34163;49.314;6.752;2023-08-17T19:09:29;99568.09;;;10.87;100.00
48352;BME280;34163;49.314;6.752;2023-08-17T19:11:56;99565.09;;;10.95;100.00
48352;BME280;34163;49.314;6.752;2023-08-17T19:14:21;99566.63;;;10.99;100.00
48352;BME280;34163;49.314;6.752;2023-08-17T19:16:46;99557.91;;;10.40;100.00
48352;BME280;34163;49.314;6.752;2023-08-17T19:19:12;99568.94;;;10.68;100.00
48352;BME280;34163;49.314;6.752;2023-08-17T19:21:37;99573.41;;;10.87;100.00
48352;BME280;34163;49.314;6.752;2023-08-17T19:24:02;99582.97;;;10.89;100.00
48352;BME280;34163;49.314;6.752;2023-08-17T19:26:27;99582.94;;;10.53;100.00
48352;BME280;34163;49.314;6.752;2023-08-17T19:28:53;99570.75;;;10.49;100.00
48352;BME280;34163;49.314;6.752;2023-08-17T19:31:18;99572.56;;;10.67;100.00
48352;BME280;34163;49.314;6.752;2023-08-17T19:33:43;99582.56;;;10.80;100.00
48352;BME280;34163;49.314;6.752;2023-08-17T19:36:09;99576.19;;;10.84;100.00
48352;BME280;34163;49.314;6.752;2023-08-17T19:38:34;99579.09;;;10.40;100.00
48352;BME280;34163;49.314;6.752;2023-08-17T19:40:59;99573.81;;;10.59;100.00
48352;BME280;34163;49.314;6.752;2023-08-17T19:43:25;99575.91;;;10.71;100.00
48352;BME280;34163;49.314;6.752;2023-08-17T19:45:50;99575.41;;;10.82;100.00
48352;BME280;34163;49.314;6.752;2023-08-17T19:48:15;99577.69;;;10.89;100.00
48352;BME280;34163;49.314;6.752;2023-08-17T19:50:40;99576.03;;;10.49;100.00
48352;BME280;34163;49.314;6.752;2023-08-17T19:53:06;99580.66;;;10.64;100.00
48352;BME280;34163;49.314;6.752;2023-08-17T19:55:31;99577.75;;;10.69;100.00
48352;BME280;34163;49.314;6.752;2023-08-17T19:57:56;99588.41;;;10.86;100.00
48352;BME280;34163;49.314;6.752;2023-08-17T20:00:25;99581.78;;;10.59;100.00
48352;BME280;34163;49.314;6.752;2023-08-17T20:02:52;99586.63;;;10.49;100.00
48352;BME280;34163;49.314;6.752;2023-08-17T20:05:17;99581.28;;;10.69;100.00
48352;BME280;34163;49.314;6.752;2023-08-17T20:07:43;99594.97;;;10.79;100.00
48352;BME280;34163;49.314;6.752;2023-08-17T20:10:17;99596.22;;;10.89;100.00
48352;BME280;34163;49.314;6.752;2023-08-17T20:12:45;99593.72;;;10.48;100.00
48352;BME280;34163;49.314;6.752;2023-08-17T20:15:10;99583.28;;;10.64;100.00
48352;BME280;34163;49.314;6.752;2023-08-17T20:17:35;99579.13;;;10.78;100.00
48352;BME280;34163;49.314;6.752;2023-08-17T20:20:01;99588.41;;;10.86;100.00
48352;BME280;34163;49.314;6.752;2023-08-17T20:22:26;99593.16;;;10.99;100.00
48352;BME280;34163;49.314;6.752;2023-08-17T20:24:51;99588.44;;;10.48;100.00
48352;BME280;34163;49.314;6.752;2023-08-17T20:27:17;99590.56;;;10.78;100.00
48352;BME280;34163;49.314;6.752;2023-08-17T20:29:42;99592.16;;;10.82;100.00
48352;BME280;34163;49.314;6.752;2023-08-17T20:32:07;99596.00;;;10.94;100.00
48352;BME280;34163;49.314;6.752;2023-08-17T20:34:32;99596.81;;;10.96;100.00
48352;BME280;34163;49.314;6.752;2023-08-17T20:36:57;99599.25;;;10.63;100.00
48352;BME280;34163;49.314;6.752;2023-08-17T20:39:25;99602.00;;;10.80;100.00
48352;BME280;34163;49.314;6.752;2023-08-17T20:42:05;99611.06;;;10.94;100.00
48352;BME280;34163;49.314;6.752;2023-08-17T20:44:31;99612.47;;;11.01;100.00
48352;BME280;34163;49.314;6.752;2023-08-17T20:46:58;99609.50;;;10.51;100.00